Time;durP1;ratioP1;P1;durP2;ratioP2;P2;SDS_P1;SDS_P2;PMS_P1;PMS_P2;Temp;Humidity;BMP_temperature;BMP_pressure;BME280_temperature;BME280_humidity;BME280_pressure;Samples;Min_cycle;Max_cycle;Signal;HPM_P1;HPM_P2
2022/12/06 00:01:06;;;;;;;8.48;4.30;;;5.70;99.90;;;;;;5017019;28;20034;-92
2022/12/06 00:03:32;;;;;;;9.05;4.25;;;5.60;99.90;;;;;;5000826;28;20491;-92
2022/12/06 00:06:12;;;;;;;9.68;4.25;;;5.60;99.90;;;;;;5014701;28;20094;-92
2022/12/06 00:08:38;;;;;;;9.45;4.35;;;5.60;99.90;;;;;;5018289;28;20049;-92
2022/12/06 00:11:08;;;;;;;8.70;4.60;;;5.60;99.90;;;;;;5012142;28;20026;-91
2022/12/06 00:13:34;;;;;;;9.80;5.20;;;5.70;99.90;;;;;;5003684;28;20030;-91
2022/12/06 00:16:01;;;;;;;9.48;4.55;;;5.60;99.90;;;;;;5011161;28;20030;-91
2022/12/06 00:18:27;;;;;;;8.70;4.90;;;5.70;99.90;;;;;;5034110;28;20026;-91
2022/12/06 00:20:52;;;;;;;12.75;5.68;;;5.60;99.90;;;;;;5034848;28;20053;-91
2022/12/06 00:23:18;;;;;;;8.55;4.75;;;5.70;99.90;;;;;;5019227;28;20030;-91
2022/12/06 00:25:44;;;;;;;10.40;5.50;;;5.70;99.90;;;;;;5014053;28;20040;-92
2022/12/06 00:28:09;;;;;;;10.90;6.20;;;5.60;99.90;;;;;;5036812;28;20039;-91
2022/12/06 00:30:35;;;;;;;12.88;6.45;;;5.70;99.90;;;;;;5029455;28;20033;-91
2022/12/06 00:33:00;;;;;;;12.70;6.55;;;5.70;99.90;;;;;;5034126;28;20049;-92
2022/12/06 00:35:26;;;;;;;12.60;6.93;;;5.70;99.90;;;;;;5018354;28;20512;-92
2022/12/06 00:37:51;;;;;;;12.07;7.07;;;5.70;99.90;;;;;;5018062;28;20085;-91
2022/12/06 00:40:17;;;;;;;14.85;7.40;;;5.70;99.90;;;;;;5013201;28;20037;-91
2022/12/06 00:42:42;;;;;;;15.48;8.25;;;5.70;99.90;;;;;;4998801;28;20403;-92
2022/12/06 00:45:08;;;;;;;17.23;8.57;;;5.70;99.90;;;;;;5004611;28;20074;-92
2022/12/06 00:47:34;;;;;;;17.80;8.35;;;5.70;99.90;;;;;;5014422;28;20026;-91
2022/12/06 00:49:59;;;;;;;14.65;7.60;;;5.70;99.90;;;;;;5015814;28;20102;-91
2022/12/06 00:52:25;;;;;;;14.25;8.27;;;5.70;99.90;;;;;;5013592;28;20036;-91
2022/12/06 00:54:50;;;;;;;15.30;8.30;;;5.80;99.90;;;;;;5017845;28;20033;-91
2022/12/06 00:57:16;;;;;;;16.60;8.55;;;5.80;99.90;;;;;;4997997;28;20033;-92
2022/12/06 00:59:42;;;;;;;17.65;8.65;;;5.80;99.90;;;;;;5008862;28;20052;-92
2022/12/06 01:02:08;;;;;;;18.52;9.23;;;5.80;99.90;;;;;;5017638;28;20028;-92
2022/12/06 01:04:36;;;;;;;13.73;8.38;;;5.80;99.90;;;;;;5008181;28;20056;-92
2022/12/06 01:07:02;;;;;;;14.18;8.73;;;5.80;99.90;;;;;;5027741;28;20156;-92
2022/12/06 01:09:29;;;;;;;13.63;8.38;;;5.80;99.90;;;;;;5023673;28;20037;-92
2022/12/06 01:11:57;;;;;;;16.63;8.80;;;5.80;99.90;;;;;;5018908;28;20018;-91
2022/12/06 01:14:23;;;;;;;13.82;8.20;;;5.80;99.90;;;;;;5038721;28;20036;-91
2022/12/06 01:16:48;;;;;;;16.15;8.18;;;5.80;99.90;;;;;;5021534;28;20044;-92
2022/12/06 01:19:14;;;;;;;13.63;7.97;;;5.80;99.90;;;;;;5019728;28;20049;-93
2022/12/06 01:21:40;;;;;;;15.15;8.00;;;5.80;99.90;;;;;;5013242;28;20117;-91
2022/12/06 01:24:05;;;;;;;13.75;7.25;;;5.80;99.90;;;;;;5021576;28;20017;-90
2022/12/06 01:26:33;;;;;;;13.15;7.95;;;5.70;99.90;;;;;;5037890;28;20025;-92
2022/12/06 01:28:59;;;;;;;17.65;8.25;;;5.70;99.90;;;;;;5021242;28;20505;-91
2022/12/06 01:31:26;;;;;;;15.10;7.95;;;5.70;99.90;;;;;;5013173;28;20095;-92
2022/12/06 01:33:51;;;;;;;12.80;6.90;;;5.70;99.90;;;;;;5012074;28;20034;-91
2022/12/06 01:36:19;;;;;;;13.25;6.90;;;5.70;99.90;;;;;;5020641;28;20110;-91
2022/12/06 01:38:52;;;;;;;11.32;6.20;;;5.70;99.90;;;;;;5018207;28;20030;-92
2022/12/06 01:41:18;;;;;;;;;;;5.60;99.90;;;;;;5019623;28;20030;-91
2022/12/06 01:43:44;;;;;;;11.60;6.60;;;5.60;99.90;;;;;;5028956;28;19909;-91
2022/12/06 01:46:28;;;;;;;17.90;7.45;;;5.60;99.90;;;;;;5021316;28;20271;-92
2022/12/06 01:49:20;;;;;;;10.25;5.43;;;5.60;99.90;;;;;;5006786;28;20083;-91
2022/12/06 01:51:55;;;;;;;17.50;6.72;;;5.60;99.90;;;;;;5009895;28;20033;-91
2022/12/06 01:54:22;;;;;;;13.95;6.30;;;5.60;99.90;;;;;;5020126;28;20033;-91
2022/12/06 01:56:51;;;;;;;13.07;6.40;;;5.60;99.90;;;;;;5019800;28;20025;-91
2022/12/06 01:59:17;;;;;;;16.73;6.57;;;5.60;99.90;;;;;;5018890;28;20041;-91
2022/12/06 02:01:44;;;;;;;14.25;5.90;;;5.60;99.90;;;;;;5020878;28;20049;-92
2022/12/06 02:04:10;;;;;;;11.70;5.78;;;5.60;99.90;;;;;;5026129;28;20121;-92
2022/12/06 02:06:37;;;;;;;11.52;6.35;;;5.50;99.90;;;;;;5022421;28;20053;-92
2022/12/06 02:09:05;;;;;;;12.02;6.60;;;5.60;99.90;;;;;;5008011;28;20033;-92
2022/12/06 02:11:31;;;;;;;13.88;6.65;;;5.60;99.90;;;;;;5002009;28;20021;-92
2022/12/06 02:13:57;;;;;;;14.35;7.03;;;5.60;99.90;;;;;;5036746;28;20036;-92
2022/12/06 02:17:10;;;;;;;13.27;6.95;;;5.60;99.90;;;;;;5010703;28;20080;-92
2022/12/06 02:19:53;;;;;;;18.05;7.15;;;5.60;99.90;;;;;;5028267;28;20491;-91
2022/12/06 02:22:30;;;;;;;13.10;6.05;;;5.60;99.90;;;;;;5011309;28;20056;-92
2022/12/06 02:25:24;;;;;;;13.30;6.38;;;5.60;99.90;;;;;;5015372;28;20026;-91
2022/12/06 02:28:18;;;;;;;13.02;6.32;;;5.60;99.90;;;;;;5028048;28;20029;-91
2022/12/06 02:30:54;;;;;;;11.27;6.50;;;5.60;99.90;;;;;;5025160;28;20048;-91
2022/12/06 02:33:34;;;;;;;16.88;6.47;;;5.60;99.90;;;;;;5020581;28;20419;-92
2022/12/06 02:36:12;;;;;;;15.18;6.90;;;5.60;99.90;;;;;;5019757;28;20033;-91
2022/12/06 02:38:52;;;;;;;12.88;6.72;;;5.60;99.90;;;;;;5025332;28;20037;-91
2022/12/06 02:41:24;;;;;;;14.68;7.10;;;5.60;99.90;;;;;;5038350;28;20147;-92
2022/12/06 02:44:01;;;;;;;12.18;6.60;;;5.70;99.90;;;;;;5029026;28;20033;-91
2022/12/06 02:46:34;;;;;;;14.25;6.75;;;5.60;99.90;;;;;;5015804;28;20034;-91
2022/12/06 02:49:02;;;;;;;16.25;7.38;;;5.70;99.90;;;;;;5017806;28;20120;-91
2022/12/06 02:51:30;;;;;;;15.43;7.43;;;5.70;99.90;;;;;;5035828;28;20057;-91
2022/12/06 02:53:58;;;;;;;15.00;7.53;;;5.70;99.90;;;;;;5011405;28;20033;-92
2022/12/06 02:56:24;;;;;;;16.02;7.65;;;5.70;99.90;;;;;;5035931;28;20109;-92
2022/12/06 02:58:50;;;;;;;18.17;7.97;;;5.70;99.90;;;;;;5037141;28;20065;-91
2022/12/06 03:01:19;;;;;;;19.50;8.30;;;5.70;99.90;;;;;;5019108;28;20496;-92
2022/12/06 03:03:56;;;;;;;17.73;7.93;;;5.70;99.90;;;;;;5012714;28;20373;-91
2022/12/06 03:06:40;;;;;;;13.07;6.93;;;5.70;99.90;;;;;;5005758;28;20033;-91
2022/12/06 03:09:25;;;;;;;16.83;7.47;;;5.70;99.90;;;;;;5018646;28;20030;-92
2022/12/06 03:12:06;;;;;;;21.50;7.60;;;5.70;99.90;;;;;;5012875;28;20033;-93
2022/12/06 03:14:54;;;;;;;20.70;7.72;;;5.60;99.90;;;;;;5016585;28;20038;-91
2022/12/06 03:17:37;;;;;;;24.13;7.18;;;5.70;99.90;;;;;;5058236;28;20041;-92
2022/12/06 03:20:06;;;;;;;;;;;5.60;99.90;;;;;;5030585;28;20083;-92
2022/12/06 03:22:39;;;;;;;14.23;6.60;;;5.60;99.90;;;;;;5024632;28;19909;-91
2022/12/06 03:25:06;;;;;;;16.50;6.88;;;5.60;99.90;;;;;;5008011;28;20026;-92
2022/12/06 03:27:34;;;;;;;15.63;7.47;;;5.60;99.90;;;;;;5020295;28;20124;-91
2022/12/06 03:30:04;;;;;;;21.40;7.32;;;5.60;99.90;;;;;;5031064;28;20025;-92
2022/12/06 03:32:32;;;;;;;19.67;7.55;;;5.60;99.90;;;;;;5025375;28;20029;-91
2022/12/06 03:35:01;;;;;;;20.67;6.90;;;5.60;99.90;;;;;;5027956;28;20072;-92
2022/12/06 03:37:31;;;;;;;17.35;7.53;;;5.60;99.90;;;;;;5040739;28;20025;-91
2022/12/06 03:40:12;;;;;;;16.02;8.07;;;5.60;99.90;;;;;;5016883;28;20041;-91
2022/12/06 03:42:38;;;;;;;21.00;8.80;;;5.60;99.90;;;;;;5011083;28;20045;-93
2022/12/06 03:45:04;;;;;;;20.40;8.40;;;5.60;99.90;;;;;;5010497;28;20430;-92
2022/12/06 03:47:59;;;;;;;18.38;7.90;;;5.60;99.90;;;;;;5027460;28;20021;-92
2022/12/06 03:50:39;;;;;;;23.45;8.68;;;5.70;99.90;;;;;;5011316;28;20056;-92
2022/12/06 03:53:04;;;;;;;21.35;8.55;;;5.70;99.90;;;;;;5018015;28;20021;-92
2022/12/06 03:55:30;;;;;;;24.77;9.38;;;5.70;99.90;;;;;;5008315;28;20026;-92
2022/12/06 03:57:56;;;;;;;20.83;9.07;;;5.70;99.90;;;;;;5011508;28;20029;-92
2022/12/06 04:00:21;;;;;;;20.15;8.45;;;5.70;99.90;;;;;;5018494;28;20038;-92
2022/12/06 04:02:47;;;;;;;22.60;8.85;;;5.70;99.90;;;;;;5016694;28;20026;-92
2022/12/06 04:05:13;;;;;;;21.23;7.80;;;5.70;99.90;;;;;;5009780;28;20028;-92
2022/12/06 04:07:38;;;;;;;17.23;8.45;;;5.60;99.90;;;;;;5017734;28;20531;-92
2022/12/06 04:10:04;;;;;;;18.75;7.88;;;5.60;99.90;;;;;;5009582;28;20041;-92
2022/12/06 04:15:17;;;;;;;16.80;7.32;;;5.60;99.90;;;;;;5033602;28;20044;-92
2022/12/06 04:24:09;;;;;;;17.52;6.43;;;5.60;99.90;;;;;;5025777;28;20092;-70
2022/12/06 04:26:34;;;;;;;18.83;7.15;;;5.60;99.90;;;;;;5028332;28;20030;-70
2022/12/06 04:39:56;;;;;;;18.63;6.13;;;5.50;99.90;;;;;;4998767;28;20037;-71
2022/12/06 04:45:06;;;;;;;17.83;6.47;;;5.50;99.90;;;;;;5002530;28;20449;-71
2022/12/06 04:47:32;;;;;;;16.20;5.45;;;5.50;99.90;;;;;;5004993;28;20480;-72
2022/12/06 04:49:57;;;;;;;16.88;5.22;;;5.50;99.90;;;;;;5019541;28;20034;-72
2022/12/06 04:52:23;;;;;;;13.02;5.53;;;5.50;99.90;;;;;;5017797;28;20034;-72
2022/12/06 04:54:48;;;;;;;16.55;5.65;;;5.40;99.90;;;;;;5007531;28;20030;-72
2022/12/06 04:57:15;;;;;;;15.13;5.35;;;5.40;99.90;;;;;;5008215;28;20026;-72
2022/12/06 04:59:42;;;;;;;15.50;5.30;;;5.40;99.90;;;;;;5007945;28;20030;-71
2022/12/06 05:02:11;;;;;;;13.23;5.07;;;5.40;99.90;;;;;;5011133;28;20487;-72
2022/12/06 05:04:37;;;;;;;13.10;4.72;;;5.40;99.90;;;;;;5020559;28;20521;-72
2022/12/06 05:07:03;;;;;;;12.52;4.70;;;5.40;99.90;;;;;;4999673;28;20153;-72
2022/12/06 05:09:28;;;;;;;19.00;5.10;;;5.40;99.90;;;;;;5013962;28;20049;-72
2022/12/06 05:11:54;;;;;;;13.80;5.30;;;5.40;99.90;;;;;;5001351;28;20441;-72
2022/12/06 05:14:19;;;;;;;10.15;4.65;;;5.40;99.90;;;;;;5008192;28;20037;-72
2022/12/06 05:16:45;;;;;;;12.48;4.35;;;5.30;99.90;;;;;;5008213;28;20026;-72
2022/12/06 05:19:12;;;;;;;11.13;4.63;;;5.30;99.90;;;;;;5003629;28;20046;-72
2022/12/06 05:21:38;;;;;;;18.60;4.78;;;5.30;99.90;;;;;;5005280;28;20366;-72
2022/12/06 05:24:04;;;;;;;11.73;4.28;;;5.40;99.90;;;;;;5006445;28;20038;-72
2022/12/06 05:26:29;;;;;;;11.80;4.68;;;5.40;99.90;;;;;;5011214;28;20109;-72
2022/12/06 05:28:56;;;;;;;11.25;4.30;;;5.30;99.90;;;;;;5007614;28;20032;-72
2022/12/06 05:31:23;;;;;;;12.20;4.78;;;5.30;99.90;;;;;;5001739;28;20367;-72
2022/12/06 05:33:49;;;;;;;9.52;3.83;;;5.30;99.90;;;;;;5008100;28;20026;-72
2022/12/06 05:36:21;;;;;;;12.25;4.50;;;5.30;99.90;;;;;;4994506;28;20034;-72
2022/12/06 05:38:47;;;;;;;;;;;5.30;99.90;;;;;;4994653;28;20034;-72
2022/12/06 05:41:13;;;;;;;14.65;5.40;;;5.20;99.90;;;;;;4992035;28;19921;-71
2022/12/06 05:43:39;;;;;;;18.10;7.03;;;5.20;99.90;;;;;;4992096;28;20069;-72
2022/12/06 05:46:05;;;;;;;14.90;6.70;;;5.20;99.90;;;;;;4990372;28;20030;-72
2022/12/06 05:48:31;;;;;;;14.95;7.40;;;5.20;99.90;;;;;;4998296;28;20036;-72
2022/12/06 05:50:57;;;;;;;18.38;8.43;;;5.20;99.90;;;;;;4994306;28;20026;-72
2022/12/06 05:53:23;;;;;;;18.50;7.93;;;5.20;99.90;;;;;;4991591;28;20065;-72
2022/12/06 05:55:49;;;;;;;16.85;7.47;;;5.20;99.90;;;;;;4993164;28;20385;-72
2022/12/06 05:58:15;;;;;;;15.52;7.35;;;5.20;99.90;;;;;;4993553;28;20034;-72
2022/12/06 06:00:41;;;;;;;18.83;8.02;;;5.20;99.90;;;;;;4987950;28;20042;-72
2022/12/06 06:03:06;;;;;;;19.15;7.97;;;5.20;99.90;;;;;;4989500;28;20034;-72
2022/12/06 06:05:32;;;;;;;17.42;7.65;;;5.20;99.90;;;;;;4986427;28;20535;-72
2022/12/06 06:07:57;;;;;;;16.20;7.05;;;5.20;99.90;;;;;;4991502;28;20046;-72
2022/12/06 06:10:23;;;;;;;14.60;6.28;;;5.20;99.90;;;;;;4991801;28;20068;-72
2022/12/06 06:12:49;;;;;;;10.95;5.40;;;5.20;99.90;;;;;;5000372;28;20076;-72
2022/12/06 06:15:15;;;;;;;14.35;5.60;;;5.20;99.90;;;;;;4991825;28;20509;-72
2022/12/06 06:17:42;;;;;;;12.88;5.65;;;5.20;99.90;;;;;;4990203;28;20034;-72
2022/12/06 06:20:12;;;;;;;12.15;5.18;;;5.10;99.90;;;;;;4991326;28;20086;-72
2022/12/06 06:22:39;;;;;;;14.02;5.97;;;5.20;99.90;;;;;;4991045;28;20023;-72
2022/12/06 06:25:05;;;;;;;12.68;5.10;;;5.10;99.90;;;;;;4995720;28;20033;-72
2022/12/06 06:27:38;;;;;;;13.52;5.07;;;5.10;99.90;;;;;;4991470;28;20425;-72
2022/12/06 06:30:07;;;;;;;11.15;4.95;;;5.10;99.90;;;;;;4991306;28;20038;-73
2022/12/06 06:32:33;;;;;;;8.23;4.70;;;5.10;99.90;;;;;;5000320;28;20031;-72
2022/12/06 06:34:58;;;;;;;11.82;4.28;;;5.10;99.90;;;;;;4989716;28;20355;-72
2022/12/06 06:37:24;;;;;;;14.07;4.47;;;5.10;99.90;;;;;;4985485;28;20051;-72
2022/12/06 06:39:49;;;;;;;10.90;4.55;;;5.10;99.90;;;;;;4984320;28;20478;-71
2022/12/06 06:42:16;;;;;;;13.15;4.25;;;5.10;99.90;;;;;;4993240;28;20671;-72
2022/12/06 06:44:42;;;;;;;11.10;3.58;;;5.10;99.90;;;;;;4986802;28;20109;-72
2022/12/06 06:47:08;;;;;;;12.07;3.40;;;5.10;99.90;;;;;;4992582;28;20440;-72
2022/12/06 06:49:33;;;;;;;9.23;3.42;;;5.10;99.90;;;;;;4990261;28;20390;-72
2022/12/06 06:51:59;;;;;;;10.63;3.42;;;5.10;99.90;;;;;;4991347;28;20616;-73
2022/12/06 06:54:30;;;;;;;11.00;3.55;;;5.00;99.90;;;;;;4994847;28;20037;-73
2022/12/06 06:56:56;;;;;;;8.48;3.45;;;5.00;99.90;;;;;;4993971;28;20042;-72
2022/12/06 06:59:23;;;;;;;8.63;3.67;;;5.10;99.90;;;;;;5007229;28;20490;-72
2022/12/06 07:01:49;;;;;;;10.93;3.97;;;5.00;99.90;;;;;;4995365;28;20112;-72
2022/12/06 07:04:14;;;;;;;10.57;3.15;;;5.10;99.90;;;;;;4985533;28;20506;-73
2022/12/06 07:06:40;;;;;;;8.40;3.58;;;5.00;99.90;;;;;;4985784;28;20113;-71
2022/12/06 07:09:06;;;;;;;10.73;3.45;;;5.00;99.90;;;;;;4991851;28;20165;-71
2022/12/06 07:11:31;;;;;;;10.45;3.75;;;5.00;99.90;;;;;;4989010;28;20390;-71
2022/12/06 07:13:57;;;;;;;8.30;3.15;;;5.00;99.90;;;;;;4982334;28;20023;-71
2022/12/06 07:16:24;;;;;;;13.43;4.50;;;5.00;99.90;;;;;;4990987;28;20173;-71
2022/12/06 07:18:49;;;;;;;8.45;3.30;;;5.00;99.90;;;;;;4981709;28;20052;-70
2022/12/06 07:21:16;;;;;;;14.10;3.95;;;5.00;99.90;;;;;;4992539;28;20124;-71
2022/12/06 07:23:41;;;;;;;10.30;3.85;;;5.00;99.90;;;;;;4984170;28;20038;-71
2022/12/06 07:26:13;;;;;;;11.70;4.40;;;5.00;99.90;;;;;;4991659;28;20042;-71
2022/12/06 07:28:40;;;;;;;9.18;3.25;;;5.00;99.90;;;;;;4990381;28;20030;-71
2022/12/06 07:31:15;;;;;;;10.60;3.78;;;5.00;99.90;;;;;;4993873;28;20030;-71
2022/12/06 07:33:41;;;;;;;11.98;3.58;;;5.00;99.90;;;;;;4990496;28;20030;-71
2022/12/06 07:36:08;;;;;;;12.43;3.88;;;5.00;99.90;;;;;;4984693;28;20536;-71
2022/12/06 07:38:33;;;;;;;9.70;3.25;;;5.00;99.90;;;;;;4989664;28;20117;-71
2022/12/06 07:44:59;;;;;;;8.13;2.88;;;5.00;99.90;;;;;;4987329;28;20142;-71
2022/12/06 07:46:39;;;;;;;8.13;2.97;;;5.00;99.90;;;;;;4982920;28;20034;-71
2022/12/06 07:49:05;;;;;;;9.35;3.30;;;5.00;99.90;;;;;;4989062;28;20023;-71
2022/12/06 07:51:31;;;;;;;10.40;3.22;;;5.00;99.90;;;;;;4991889;28;20026;-71
2022/12/06 07:53:57;;;;;;;7.97;3.10;;;5.00;99.90;;;;;;4990021;28;20466;-72
2022/12/06 07:56:23;;;;;;;9.80;3.30;;;5.00;99.90;;;;;;4983366;28;20022;-72
2022/12/06 07:58:49;;;;;;;13.27;3.15;;;5.00;99.90;;;;;;4993274;28;20022;-72
2022/12/06 08:01:14;;;;;;;8.63;3.30;;;5.00;99.90;;;;;;4987490;28;20042;-72
2022/12/06 08:03:40;;;;;;;8.10;2.92;;;5.00;99.90;;;;;;4983249;28;20018;-72
2022/12/06 08:06:07;;;;;;;11.65;3.08;;;5.00;99.90;;;;;;4978266;28;20027;-71
2022/12/06 08:08:33;;;;;;;7.15;2.65;;;5.00;99.90;;;;;;4984116;28;20061;-72
2022/12/06 08:11:00;;;;;;;8.05;3.00;;;5.10;99.90;;;;;;4976567;28;20120;-72
2022/12/06 08:13:26;;;;;;;8.60;3.00;;;5.10;99.90;;;;;;4987485;28;20038;-71
2022/12/06 08:15:52;;;;;;;10.75;2.90;;;5.10;99.90;;;;;;4989504;28;20081;-71
2022/12/06 08:18:18;;;;;;;11.70;3.17;;;5.10;99.90;;;;;;4986378;28;20030;-72
2022/12/06 08:20:43;;;;;;;7.53;2.88;;;5.10;99.90;;;;;;4981651;28;20050;-71
2022/12/06 08:23:09;;;;;;;8.98;2.78;;;5.10;99.90;;;;;;4989909;28;20034;-71
2022/12/06 08:25:34;;;;;;;8.55;2.83;;;5.10;99.90;;;;;;4983853;28;20030;-71
2022/12/06 08:28:00;;;;;;;8.10;2.55;;;5.00;99.90;;;;;;4978677;28;20023;-71
2022/12/06 08:30:25;;;;;;;13.13;3.30;;;5.00;99.90;;;;;;4987487;28;20029;-71
2022/12/06 08:32:51;;;;;;;7.65;3.00;;;5.00;99.90;;;;;;4983603;28;20026;-71
2022/12/06 08:35:16;;;;;;;8.65;2.97;;;4.90;99.90;;;;;;4988882;28;20034;-72
2022/12/06 08:37:42;;;;;;;6.05;2.60;;;4.90;99.90;;;;;;4992656;28;20397;-71
2022/12/06 08:40:08;;;;;;;12.98;3.10;;;4.80;99.90;;;;;;5011263;28;20045;-71
2022/12/06 08:42:33;;;;;;;8.68;3.10;;;4.70;99.90;;;;;;5004946;28;20022;-71
2022/12/06 08:44:59;;;;;;;7.05;2.58;;;4.70;99.90;;;;;;4987924;28;20489;-71
2022/12/06 08:47:25;;;;;;;8.45;3.35;;;4.70;99.90;;;;;;4990552;28;20076;-71
2022/12/06 08:49:50;;;;;;;8.43;3.25;;;4.60;99.90;;;;;;4980394;28;20508;-70
2022/12/06 08:52:16;;;;;;;7.78;2.47;;;4.60;99.90;;;;;;4990381;28;20035;-71
2022/12/06 08:54:42;;;;;;;28.20;4.45;;;4.50;99.90;;;;;;4988685;28;20022;-70
2022/12/06 08:57:08;;;;;;;44.03;6.07;;;4.50;99.90;;;;;;5001102;28;20037;-70
2022/12/06 08:59:33;;;;;;;15.07;4.07;;;4.50;99.90;;;;;;4987850;28;20461;-70
2022/12/06 09:01:59;;;;;;;12.57;2.90;;;4.40;99.90;;;;;;5008696;28;20029;-71
2022/12/06 09:04:25;;;;;;;32.60;9.05;;;4.40;99.90;;;;;;4994274;28;20022;-71
2022/12/06 09:06:50;;;;;;;10.70;3.95;;;4.40;99.90;;;;;;4989758;28;20098;-71
2022/12/06 09:09:17;;;;;;;10.35;3.30;;;4.40;99.90;;;;;;4982324;28;20429;-70
2022/12/06 09:11:44;;;;;;;10.77;3.28;;;4.30;99.90;;;;;;4981460;28;20033;-71
2022/12/06 09:14:15;;;;;;;9.77;3.60;;;4.20;99.90;;;;;;4977989;28;20042;-71
2022/12/06 09:16:43;;;;;;;9.98;3.50;;;4.20;99.90;;;;;;4983430;28;20018;-71
2022/12/06 09:19:12;;;;;;;11.95;3.85;;;4.20;99.90;;;;;;4984056;28;20450;-71
2022/12/06 09:21:41;;;;;;;11.05;3.28;;;4.30;99.90;;;;;;4978201;28;20038;-71
2022/12/06 09:24:10;;;;;;;8.98;3.53;;;4.30;99.90;;;;;;4980619;28;20034;-71
2022/12/06 09:26:36;;;;;;;10.70;3.15;;;4.40;99.90;;;;;;4988896;28;20088;-70
2022/12/06 09:29:01;;;;;;;8.50;3.08;;;4.50;99.90;;;;;;4974737;28;20490;-71
2022/12/06 09:31:27;;;;;;;7.43;2.53;;;4.50;99.90;;;;;;4982603;28;20050;-70
2022/12/06 09:33:53;;;;;;;6.00;1.90;;;4.60;99.90;;;;;;4990255;28;20068;-71
2022/12/06 09:36:29;;;;;;;9.45;3.50;;;4.60;99.90;;;;;;4986031;28;20041;-71
2022/12/06 09:39:04;;;;;;;5.80;3.17;;;4.70;99.90;;;;;;4986201;28;20030;-71
2022/12/06 09:42:07;;;;;;;8.48;3.28;;;4.70;99.90;;;;;;4989895;28;20042;-71
2022/12/06 09:45:26;;;;;;;10.25;3.08;;;4.80;99.90;;;;;;4997691;28;20034;-71
2022/12/06 09:48:11;;;;;;;8.40;2.80;;;4.90;99.90;;;;;;5020571;28;20041;-71
2022/12/06 09:50:42;;;;;;;8.10;3.22;;;4.90;99.90;;;;;;5001180;28;20126;-71
2022/12/06 09:53:45;;;;;;;9.30;3.75;;;5.00;99.90;;;;;;4993359;28;20033;-70
2022/12/06 09:56:23;;;;;;;6.65;3.30;;;5.10;99.90;;;;;;4991641;28;20061;-71
2022/12/06 09:59:14;;;;;;;7.20;3.28;;;5.10;99.90;;;;;;4983001;28;20026;-70
2022/12/06 10:01:54;;;;;;;6.57;3.95;;;5.20;99.90;;;;;;4982885;28;20042;-71
2022/12/06 10:04:38;;;;;;;6.57;2.83;;;5.30;99.90;;;;;;4988454;28;20108;-71
2022/12/06 10:07:21;;;;;;;8.90;3.10;;;5.40;99.90;;;;;;4989872;28;20182;-71
2022/12/06 10:10:17;;;;;;;7.45;2.67;;;5.40;99.90;;;;;;4981883;28;20051;-71
2022/12/06 10:12:51;;;;;;;6.63;2.60;;;5.50;99.90;;;;;;4986619;28;20026;-70
2022/12/06 10:15:52;;;;;;;7.32;2.20;;;5.50;99.90;;;;;;5014626;28;20046;-72
2022/12/06 10:18:41;;;;;;;5.57;2.38;;;5.60;99.90;;;;;;4998057;28;20579;-70
2022/12/06 10:21:28;;;;;;;6.88;2.40;;;5.60;99.90;;;;;;4987033;28;20076;-71
2022/12/06 10:24:40;;;;;;;10.48;2.63;;;5.70;99.90;;;;;;5007267;28;20385;-71
2022/12/06 10:27:35;;;;;;;6.10;2.38;;;5.80;99.90;;;;;;4987801;28;20077;-71
2022/12/06 10:30:03;;;;;;;7.43;2.22;;;5.80;99.90;;;;;;4991506;28;20151;-72
2022/12/06 10:32:43;;;;;;;6.28;2.15;;;5.90;99.90;;;;;;4987124;28;20022;-71
2022/12/06 10:35:37;;;;;;;8.23;2.55;;;5.90;99.90;;;;;;4989687;28;20065;-71
2022/12/06 10:38:24;;;;;;;7.43;2.03;;;6.00;99.90;;;;;;4989296;28;20070;-71
2022/12/06 10:41:05;;;;;;;5.10;2.05;;;6.00;99.90;;;;;;4988341;28;20057;-71
2022/12/06 10:44:11;;;;;;;4.05;1.77;;;6.00;99.90;;;;;;4991986;28;20026;-71
2022/12/06 10:47:02;;;;;;;5.60;1.33;;;6.00;99.90;;;;;;4993879;28;20515;-71
2022/12/06 10:49:38;;;;;;;4.70;1.35;;;6.00;99.90;;;;;;4985549;28;20117;-71
2022/12/06 10:52:23;;;;;;;9.35;1.73;;;6.10;99.90;;;;;;4991307;28;20117;-71
2022/12/06 10:54:57;;;;;;;4.28;1.70;;;6.10;99.90;;;;;;4987850;28;20053;-71
2022/12/06 10:57:53;;;;;;;7.43;2.05;;;6.10;99.90;;;;;;4992584;28;20042;-71
2022/12/06 11:00:24;;;;;;;4.00;1.30;;;6.20;99.90;;;;;;4988350;28;20441;-71
2022/12/06 11:03:17;;;;;;;6.07;1.75;;;6.20;99.90;;;;;;4990009;28;20028;-71
2022/12/06 11:06:01;;;;;;;3.20;1.20;;;6.20;99.90;;;;;;4990824;28;20032;-71
2022/12/06 11:08:38;;;;;;;6.00;1.55;;;6.20;99.90;;;;;;4991081;28;20109;-71
2022/12/06 11:11:09;;;;;;;3.42;1.65;;;6.20;99.90;;;;;;4997547;28;20030;-71
2022/12/06 11:13:39;;;;;;;7.30;1.90;;;6.20;99.90;;;;;;4989109;28;20044;-71
2022/12/06 11:16:12;;;;;;;4.38;2.22;;;6.20;99.90;;;;;;4984214;28;20393;-71
2022/12/06 11:18:38;;;;;;;4.82;1.55;;;6.20;99.90;;;;;;4991089;28;20026;-71
2022/12/06 11:21:32;;;;;;;5.00;1.63;;;6.30;99.90;;;;;;4982997;28;20066;-71
2022/12/06 11:24:11;;;;;;;3.70;1.45;;;6.40;99.90;;;;;;4989204;28;20019;-70
2022/12/06 11:26:57;;;;;;;8.98;1.73;;;6.40;99.90;;;;;;4991991;28;20592;-71
2022/12/06 11:29:22;;;;;;;6.60;1.48;;;6.40;99.90;;;;;;4995772;28;20033;-71
2022/12/06 11:31:56;;;;;;;3.25;1.02;;;6.40;99.90;;;;;;4994884;28;20025;-71
2022/12/06 11:34:36;;;;;;;8.32;1.73;;;6.50;99.90;;;;;;4991253;28;20023;-71
2022/12/06 11:37:03;;;;;;;7.40;2.17;;;6.50;99.90;;;;;;4982297;28;20425;-71
2022/12/06 11:39:30;;;;;;;5.07;1.65;;;6.50;99.90;;;;;;4989705;28;20085;-71
2022/12/06 11:41:58;;;;;;;6.93;1.73;;;6.60;99.90;;;;;;4988986;28;20438;-71
2022/12/06 11:44:26;;;;;;;3.85;1.48;;;6.60;99.90;;;;;;4997184;28;20021;-71
2022/12/06 11:46:57;;;;;;;6.43;1.50;;;6.60;99.90;;;;;;5006667;28;20033;-71
2022/12/06 11:49:53;;;;;;;8.57;1.67;;;6.80;99.90;;;;;;5001934;28;20023;-72
2022/12/06 11:52:37;;;;;;;7.28;1.42;;;7.00;99.90;;;;;;4989932;28;20043;-72
2022/12/06 11:55:18;;;;;;;3.80;1.13;;;7.10;99.90;;;;;;4989509;28;20452;-71
2022/12/06 11:57:50;;;;;;;6.63;1.20;;;7.20;99.90;;;;;;4985460;28;20022;-71
2022/12/06 12:00:20;;;;;;;3.53;1.00;;;7.30;99.90;;;;;;4985122;28;20069;-71
2022/12/06 12:02:47;;;;;;;7.72;1.23;;;7.30;99.90;;;;;;4997327;28;20563;-71
2022/12/06 12:05:16;;;;;;;2.35;0.90;;;7.30;99.90;;;;;;4988171;28;20062;-71
2022/12/06 12:07:44;;;;;;;3.35;1.20;;;7.30;99.90;;;;;;4989359;28;20026;-71
2022/12/06 12:10:41;;;;;;;5.45;1.13;;;7.30;99.90;;;;;;4991573;28;20045;-71
2022/12/06 12:15:55;;;;;;;5.72;1.50;;;7.20;99.90;;;;;;4983610;28;20057;-71
2022/12/06 12:18:27;;;;;;;3.80;1.13;;;7.20;99.90;;;;;;4992928;28;20033;-72
2022/12/06 12:20:54;;;;;;;5.35;1.30;;;7.20;99.90;;;;;;4984345;28;20057;-71
2022/12/06 12:23:33;;;;;;;5.45;1.45;;;7.20;99.90;;;;;;4992166;28;20064;-71
2022/12/06 12:26:16;;;;;;;4.80;1.50;;;7.20;99.90;;;;;;4990881;28;20069;-71
2022/12/06 12:28:45;;;;;;;5.18;1.25;;;7.20;99.90;;;;;;4997712;28;20022;-71
2022/12/06 12:31:25;;;;;;;6.13;1.67;;;7.20;99.90;;;;;;4988565;28;20046;-71
2022/12/06 12:34:12;;;;;;;10.25;1.60;;;7.20;99.90;;;;;;4988303;28;20026;-72
2022/12/06 12:36:37;;;;;;;8.32;1.63;;;7.20;99.90;;;;;;4990566;28;22056;-71
2022/12/06 12:39:03;;;;;;;4.38;1.25;;;7.20;99.90;;;;;;4990232;28;20053;-71
2022/12/06 12:41:44;;;;;;;7.15;1.63;;;7.20;99.90;;;;;;4990478;28;20162;-71
2022/12/06 12:44:17;;;;;;;6.97;1.45;;;7.20;99.90;;;;;;4995333;28;20030;-71
2022/12/06 12:46:44;;;;;;;4.63;1.10;;;7.20;99.90;;;;;;4994391;28;20057;-71
2022/12/06 12:49:24;;;;;;;2.83;0.95;;;7.30;99.90;;;;;;4993281;28;20654;-71
2022/12/06 12:51:50;;;;;;;6.20;1.30;;;7.30;99.90;;;;;;4995328;28;20038;-71
2022/12/06 12:54:26;;;;;;;3.63;1.08;;;7.20;99.90;;;;;;4991905;28;20066;-71
2022/12/06 12:56:52;;;;;;;6.55;1.60;;;7.20;99.90;;;;;;4991808;28;20031;-71
2022/12/06 12:59:21;;;;;;;5.63;1.40;;;7.20;99.90;;;;;;4993365;28;20505;-71
2022/12/06 13:01:58;;;;;;;3.97;1.60;;;7.10;99.90;;;;;;4990967;28;20113;-71
2022/12/06 13:04:35;;;;;;;5.38;1.70;;;7.20;99.90;;;;;;4993725;28;20074;-71
2022/12/06 13:07:18;;;;;;;3.85;1.40;;;7.20;99.90;;;;;;4998261;28;20041;-71
2022/12/06 13:10:04;;;;;;;6.03;1.75;;;7.20;99.90;;;;;;4996712;28;20040;-71
2022/12/06 13:12:35;;;;;;;6.30;1.77;;;7.20;99.90;;;;;;4992764;28;20035;-71
2022/12/06 13:15:06;;;;;;;8.40;2.25;;;7.20;99.90;;;;;;4994142;28;20097;-71
2022/12/06 13:17:34;;;;;;;5.18;1.98;;;7.20;99.90;;;;;;4991612;28;20085;-71
2022/12/06 13:20:02;;;;;;;7.45;1.90;;;7.20;99.90;;;;;;4991306;28;20050;-71
2022/12/06 13:22:36;;;;;;;6.45;1.90;;;7.20;99.90;;;;;;4996075;28;20032;-71
2022/12/06 13:25:05;;;;;;;3.78;1.95;;;7.30;99.90;;;;;;4992478;28;20022;-71
2022/12/06 13:27:39;;;;;;;6.15;1.67;;;7.20;99.90;;;;;;4997094;28;20018;-71
2022/12/06 13:30:17;;;;;;;3.63;1.38;;;7.30;99.90;;;;;;4986981;28;20046;-71
2022/12/06 13:32:53;;;;;;;7.75;1.08;;;7.30;99.90;;;;;;4986169;28;20078;-71
2022/12/06 13:35:32;;;;;;;4.38;1.77;;;7.30;99.90;;;;;;4990532;28;20022;-71
2022/12/06 13:38:17;;;;;;;4.78;1.17;;;7.30;99.90;;;;;;5004877;28;20021;-71
2022/12/06 13:40:45;;;;;;;3.22;0.90;;;7.30;99.90;;;;;;4996749;28;20035;-72
2022/12/06 13:43:22;;;;;;;4.75;1.30;;;7.20;99.90;;;;;;4996560;28;20087;-72